| time (UTC) | temp F | wind direction | speed knots | gust knots | rain 1hr in | rain 24hr in | rain mn in | humidity % | barometer mb |
| 20260510174223 | 83 | 0.0 | 0.0 | 0.00 | 0.00 | 0.00 | 39 | 1045.0 | |
| 20260510172647 | 85 | 0.0 | 0.0 | 0.00 | 0.00 | 0.00 | 39 | 1045.0 | |
| 20260510171111 | 85 | 0.0 | 0.0 | 0.00 | 0.00 | 0.00 | 40 | 1044.8 | |
| 20260510165535 | 84 | 0.0 | 0.0 | 0.00 | 0.00 | 0.00 | 43 | 1045.0 | |
| 20260510163959 | 81 | 0.0 | 0.0 | 0.00 | 0.00 | 0.00 | 48 | 1045.0 | |
| 20260510162423 | 71 | 0.0 | 0.0 | 0.00 | 0.00 | 0.00 | 47 | 1044.9 | |
| 20260510160847 | 76 | 0.0 | 0.0 | 0.00 | 0.00 | 0.00 | 44 | 1044.6 | |
| 20260510155311 | 78 | 0.0 | 0.0 | 0.00 | 0.00 | 0.00 | 45 | 1044.8 | |
| 20260510153735 | 76 | 0.0 | 0.0 | 0.00 | 0.00 | 0.00 | 45 | 1044.9 | |
| 20260510152159 | 73 | 0.0 | 0.0 | 0.00 | 0.00 | 0.00 | 51 | 1045.0 | |
| 20260510150623 | 74 | 0.0 | 0.0 | 0.00 | 0.00 | 0.00 | 52 | 1045.2 | |
| 20260510145047 | 73 | 0.0 | 0.0 | 0.00 | 0.00 | 0.00 | 56 | 1045.3 | |
| 20260510143511 | 72 | 0.0 | 0.0 | 0.00 | 0.00 | 0.00 | 65 | 1045.7 | |
| 20260510141935 | 72 | 0.0 | 0.0 | 0.00 | 0.00 | 0.00 | 76 | 1046.3 | |
| 20260510140359 | 66 | 0.0 | 0.0 | 0.00 | 0.00 | 0.00 | 82 | 1046.5 | |
| 20260510134823 | 66 | 0.0 | 0.0 | 0.00 | 0.00 | 0.00 | 94 | 1046.7 | |
| 20260510133247 | 63 | 0.0 | 0.0 | 0.00 | 0.00 | 0.00 | 97 | 1046.3 | |
| 20260510131711 | 61 | 0.0 | 0.0 | 0.00 | 0.00 | 0.00 | 96 | 1047.5 | |
| 20260510130136 | 60 | 0.0 | 0.0 | 0.00 | 0.00 | 0.00 | 95 | 1047.7 | |
| 20260510124600 | 56 | 0.0 | 0.0 | 0.00 | 0.00 | 0.00 | 88 | 1047.7 | |
| 20260510123024 | 70 | 0.0 | 0.0 | 0.00 | 0.00 | 0.00 | 42 | 1045.8 | |
| 20260510121448 | 73 | 0.0 | 0.0 | 0.00 | 0.00 | 0.00 | 35 | 1045.0 | |
| 20260510115912 | 77 | 0.0 | 0.0 | 0.00 | 0.00 | 0.00 | 34 | 1045.2 | |
| 20260510114336 | 77 | 0.0 | 0.0 | 0.00 | 0.00 | 0.00 | 34 | 1045.2 | |
| 20260510112800 | 80 | 0.0 | 0.0 | 0.00 | 0.00 | 0.00 | 33 | 1045.2 | |
| 20260510111224 | 77 | 0.0 | 0.0 | 0.00 | 0.00 | 0.00 | 35 | 1045.2 | |
| 20260510105648 | 74 | 0.0 | 0.0 | 0.00 | 0.00 | 0.00 | 36 | 1045.4 | |
| 20260510104112 | 79 | 0.0 | 0.0 | 0.00 | 0.00 | 0.00 | 37 | 1045.6 | |
| 20260510102536 | 72 | 0.0 | 0.0 | 0.00 | 0.00 | 0.00 | 41 | 1045.9 | |
| 20260510101000 | 70 | 0.0 | 0.0 | 0.00 | 0.00 | 0.00 | 43 | 1046.0 | |
| 20260510095424 | 68 | 0.0 | 0.0 | 0.00 | 0.00 | 0.00 | 43 | 1046.1 | |
| 20260510093848 | 69 | 0.0 | 0.0 | 0.00 | 0.00 | 0.00 | 43 | 1046.1 | |
| 20260510092312 | 71 | 0.0 | 0.0 | 0.00 | 0.00 | 0.00 | 41 | 1046.2 | |
| 20260510090736 | 71 | 0.0 | 0.0 | 0.00 | 0.00 | 0.00 | 44 | 1046.4 | |
| 20260510085200 | 70 | 0.0 | 0.0 | 0.00 | 0.00 | 0.00 | 45 | 1046.5 | |
| 20260510083624 | 70 | 0.0 | 0.0 | 0.00 | 0.00 | 0.00 | 46 | 1046.6 | |
| 20260510082048 | 67 | 0.0 | 0.0 | 0.00 | 0.00 | 0.00 | 47 | 1046.7 | |
| 20260510080512 | 68 | 0.0 | 0.0 | 0.00 | 0.00 | 0.00 | 46 | 1046.6 | |
| 20260510074936 | 68 | 0.0 | 0.0 | 0.00 | 0.00 | 0.00 | 47 | 1046.7 | |
| 20260510073400 | 68 | 0.0 | 0.0 | 0.00 | 0.00 | 0.00 | 48 | 1046.4 | |
| 20260510071824 | 67 | 0.0 | 0.0 | 0.00 | 0.00 | 0.00 | 50 | 1046.2 | |
| 20260510070248 | 66 | 0.0 | 0.0 | 0.00 | 0.00 | 0.00 | 52 | 1046.2 | |
| 20260510064712 | 64 | 0.0 | 0.0 | 0.00 | 0.00 | 0.00 | 56 | 1046.0 | |
| 20260510063136 | 62 | 0.0 | 0.0 | 0.00 | 0.00 | 0.00 | 58 | 1045.8 | |
| 20260510061600 | 62 | 0.0 | 0.0 | 0.00 | 0.00 | 0.00 | 58 | 1045.8 | |
| 20260510060024 | 62 | 0.0 | 0.0 | 0.00 | 0.00 | 0.00 | 57 | 1045.6 | |
| 20260510054449 | 62 | 0.0 | 0.0 | 0.00 | 0.00 | 0.00 | 59 | 1045.5 | |
| 20260510052913 | 62 | 0.0 | 0.0 | 0.00 | 0.00 | 0.00 | 60 | 1045.2 | |
| 20260510051337 | 63 | 0.0 | 0.0 | 0.00 | 0.00 | 0.00 | 63 | 1045.2 | |
| 20260510045801 | 62 | 0.0 | 0.0 | 0.00 | 0.00 | 0.00 | 69 | 1045.2 | |
| 20260510044225 | 61 | 0.0 | 0.0 | 0.00 | 0.00 | 0.00 | 71 | 1045.1 | |
| 20260510042649 | 61 | 0.0 | 0.0 | 0.00 | 0.00 | 0.00 | 70 | 1044.9 | |
| 20260510041113 | 62 | 0.0 | 0.0 | 0.00 | 0.00 | 0.00 | 69 | 1044.9 | |
| 20260510035537 | 62 | 0.0 | 0.0 | 0.00 | 0.00 | 0.00 | 69 | 1045.0 | |
| 20260510034001 | 62 | 0.0 | 0.0 | 0.00 | 0.00 | 0.00 | 69 | 1045.0 | |
| 20260510032425 | 62 | 0.0 | 0.0 | 0.00 | 0.00 | 0.00 | 70 | 1044.7 | |
| 20260510030849 | 62 | 0.0 | 0.0 | 0.00 | 0.00 | 0.00 | 70 | 1044.6 | |
| 20260510025313 | 62 | 0.0 | 0.0 | 0.00 | 0.00 | 0.00 | 70 | 1044.5 | |
| 20260510023737 | 62 | 0.0 | 0.0 | 0.00 | 0.00 | 0.00 | 70 | 1044.7 | |
| 20260510022201 | 62 | 0.0 | 0.0 | 0.00 | 0.00 | 0.00 | 70 | 1044.9 | |
| 20260510020625 | 63 | 0.0 | 0.0 | 0.00 | 0.00 | 0.00 | 71 | 1044.8 | |
| 20260510015049 | 63 | 0.0 | 0.0 | 0.00 | 0.00 | 0.00 | 73 | 1044.6 | |
| 20260510013513 | 63 | 0.0 | 0.0 | 0.00 | 0.00 | 0.00 | 74 | 1044.7 | |
| 20260510011937 | 62 | 0.0 | 0.0 | 0.00 | 0.00 | 0.00 | 77 | 1044.8 | |
| 20260510010401 | 62 | 0.0 | 0.0 | 0.00 | 0.00 | 0.00 | 80 | 1045.1 | |
| 20260510004825 | 62 | 0.0 | 0.0 | 0.00 | 0.00 | 0.00 | 83 | 1044.9 | |
| 20260510003249 | 62 | 0.0 | 0.0 | 0.00 | 0.00 | 0.00 | 86 | 1045.1 | |
| 20260510001713 | 62 | 0.0 | 0.0 | 0.00 | 0.00 | 0.00 | 87 | 1045.1 | |
| 20260510000137 | 62 | 0.0 | 0.0 | 0.00 | 0.00 | 0.00 | 88 | 1045.2 | |
| 20260509234601 | 62 | 0.0 | 0.0 | 0.00 | 0.00 | 0.00 | 88 | 1045.4 | |
| 20260509233025 | 62 | 0.0 | 0.0 | 0.00 | 0.00 | 0.00 | 88 | 1045.3 | |
| 20260509231449 | 62 | 0.0 | 0.0 | 0.00 | 0.00 | 0.00 | 89 | 1045.4 | |
| 20260509225914 | 61 | 0.0 | 0.0 | 0.00 | 0.00 | 0.00 | 89 | 1045.3 | |
| 20260509224338 | 61 | 0.0 | 0.0 | 0.00 | 0.00 | 0.00 | 89 | 1045.2 | |
| 20260509222802 | 62 | 0.0 | 0.0 | 0.00 | 0.00 | 0.00 | 88 | 1045.2 | |
| 20260509221226 | 62 | 0.0 | 0.0 | 0.00 | 0.00 | 0.00 | 87 | 1045.4 | |
| 20260509215650 | 62 | 0.0 | 0.0 | 0.00 | 0.00 | 0.00 | 86 | 1045.3 | |
| 20260509214114 | 63 | 0.0 | 0.0 | 0.00 | 0.00 | 0.00 | 85 | 1045.2 | |
| 20260509212538 | 63 | 0.0 | 0.0 | 0.00 | 0.00 | 0.00 | 84 | 1045.1 | |
| 20260509211002 | 62 | 0.0 | 0.0 | 0.00 | 0.00 | 0.00 | 83 | 1045.0 | |
| 20260509205426 | 64 | 0.0 | 0.0 | 0.00 | 0.00 | 0.00 | 81 | 1044.9 | |
| 20260509203850 | 64 | 0.0 | 0.0 | 0.00 | 0.00 | 0.00 | 80 | 1044.9 | |
| 20260509202314 | 63 | 0.0 | 0.0 | 0.00 | 0.00 | 0.00 | 79 | 1044.9 | |
| 20260509200738 | 64 | 0.0 | 0.0 | 0.00 | 0.00 | 0.00 | 78 | 1044.6 | |
| 20260509195202 | 64 | 0.0 | 0.0 | 0.00 | 0.00 | 0.00 | 76 | 1044.3 | |
| 20260509193626 | 64 | 0.0 | 0.0 | 0.00 | 0.00 | 0.00 | 74 | 1044.2 | |
| 20260509192050 | 65 | 0.0 | 0.0 | 0.00 | 0.00 | 0.00 | 72 | 1044.1 | |
| 20260509190514 | 66 | 0.0 | 0.0 | 0.00 | 0.00 | 0.00 | 70 | 1044.1 | |
| 20260509184938 | 67 | 0.0 | 0.0 | 0.00 | 0.00 | 0.00 | 69 | 1044.1 | |
| 20260509183402 | 67 | 0.0 | 0.0 | 0.00 | 0.00 | 0.00 | 68 | 1044.0 | |
| 20260509181826 | 67 | 0.0 | 0.0 | 0.00 | 0.00 | 0.00 | 67 | 1044.2 | |
| 20260509180250 | 67 | 0.0 | 0.0 | 0.00 | 0.00 | 0.00 | 67 | 1044.2 |